Time;durP1;ratioP1;P1;durP2;ratioP2;P2;SDS_P1;SDS_P2;PMS_P1;PMS_P2;Temp;Humidity;BMP_temperature;BMP_pressure;BME280_temperature;BME280_humidity;BME280_pressure;Samples;Min_cycle;Max_cycle;Signal;HPM_P1;HPM_P2
2021/08/10 00:01:48;;;;;;;0.40;0.40;;;16.00;94.90;;;18.64;84.22;101505.41;4395502;39;97595;-75
2021/08/10 00:04:52;;;;;;;0.10;0.10;;;16.00;94.90;;;18.58;84.17;101512.94;4394877;39;96917;-74
2021/08/10 00:07:56;;;;;;;0.20;0.20;;;15.90;94.90;;;18.42;84.88;101513.94;4392809;39;97746;-74
2021/08/10 00:11:01;;;;;;;1.80;1.70;;;15.90;94.90;;;18.36;85.21;101516.06;4371475;39;97620;-74
2021/08/10 00:14:10;;;;;;;0.45;0.45;;;15.90;94.90;;;18.31;85.29;101516.25;4393287;39;97721;-74
2021/08/10 00:17:14;;;;;;;0.20;0.20;;;15.80;94.90;;;18.34;84.67;101512.09;4394445;39;96680;-74
2021/08/10 00:20:18;;;;;;;0.45;0.45;;;15.80;94.90;;;18.30;84.90;101508.47;4378984;39;97574;-74
2021/08/10 00:23:22;;;;;;;;;;;15.80;94.90;;;18.20;84.67;101506.94;4386609;39;97555;-74
2021/08/10 00:26:28;;;;;;;0.00;0.00;;;15.70;94.80;;;18.16;85.01;101508.72;4394610;39;97516;-74
2021/08/10 00:29:33;;;;;;;1.23;0.32;;;15.70;94.80;;;18.17;84.84;101513.03;4393484;39;97157;-74
2021/08/10 00:32:37;;;;;;;0.20;0.20;;;15.60;94.80;;;18.13;85.08;101516.72;4384668;39;96998;-74
2021/08/10 00:35:42;;;;;;;0.10;0.10;;;15.60;94.80;;;18.10;84.74;101514.69;4379061;39;97445;-74
2021/08/10 00:38:46;;;;;;;0.20;0.20;;;15.60;94.80;;;18.20;84.16;101512.34;4374648;39;96812;-74
2021/08/10 00:41:50;;;;;;;3.33;1.08;;;15.60;94.80;;;18.02;84.67;101507.41;4383371;39;96710;-75
2021/08/10 00:44:55;;;;;;;0.20;0.20;;;15.50;94.80;;;18.12;84.67;101504.28;4384860;39;97844;-74
2021/08/10 00:48:00;;;;;;;0.38;0.10;;;15.50;94.90;;;18.11;84.59;101497.28;4385579;39;97550;-74
2021/08/10 00:51:12;;;;;;;1.38;1.02;;;15.50;94.90;;;18.12;84.12;101507.00;4381746;39;97521;-74
2021/08/10 00:54:19;;;;;;;0.10;0.10;;;15.50;94.90;;;18.08;84.52;101504.19;4390311;39;96609;-74
2021/08/10 00:57:25;;;;;;;0.10;0.10;;;15.50;94.90;;;18.09;84.50;101510.38;4392959;39;96720;-74
2021/08/10 01:00:30;;;;;;;0.60;0.60;;;15.40;94.90;;;18.09;84.50;101500.34;4393509;39;97511;-74
2021/08/10 01:03:34;;;;;;;2.55;1.05;;;15.40;94.90;;;18.02;84.32;101505.50;4389917;39;96726;-74
2021/08/10 01:07:01;;;;;;;0.25;0.25;;;15.40;94.90;;;18.00;84.73;101507.75;4393136;39;97669;-74
2021/08/10 01:10:15;;;;;;;0.32;0.32;;;15.40;95.00;;;18.00;84.29;101501.53;4385624;39;98628;-74
2021/08/10 01:13:33;;;;;;;0.55;0.55;;;15.40;95.00;;;17.96;84.61;101490.53;4383875;39;98953;-74
2021/08/10 01:16:53;;;;;;;0.10;0.10;;;15.30;94.90;;;17.94;84.43;101502.88;4391990;39;98598;-74
2021/08/10 01:20:31;;;;;;;2.05;0.80;;;15.30;94.90;;;17.92;84.67;101502.41;4390024;39;96888;-74
2021/08/10 01:23:36;;;;;;;0.00;0.00;;;15.30;94.90;;;17.93;84.05;101496.63;4380063;39;97808;-74
2021/08/10 01:27:13;;;;;;;0.30;0.30;;;15.30;94.90;;;17.92;84.35;101500.47;4392144;39;97289;-74
2021/08/10 01:30:23;;;;;;;0.15;0.15;;;15.30;95.00;;;17.91;84.63;101501.59;4375408;39;96629;-74
2021/08/10 01:33:32;;;;;;;0.20;0.20;;;15.30;95.00;;;17.91;84.26;101498.88;4393797;39;97797;-74
2021/08/10 01:36:40;;;;;;;3.08;1.55;;;15.30;95.00;;;17.96;83.95;101500.63;4376628;39;96839;-74
2021/08/10 01:39:47;;;;;;;0.20;0.20;;;15.30;95.00;;;18.01;83.66;101495.75;4382963;39;97553;-74
2021/08/10 01:42:56;;;;;;;0.85;0.57;;;15.20;95.00;;;18.03;83.84;101501.69;4376494;39;97820;-75
2021/08/10 01:46:04;;;;;;;0.35;0.35;;;15.20;95.00;;;18.02;84.17;101494.66;4393244;39;98922;-74
2021/08/10 01:49:13;;;;;;;1.65;0.40;;;15.30;95.10;;;18.06;84.11;101487.44;4386032;39;97686;-74
2021/08/10 01:52:22;;;;;;;0.10;0.10;;;15.20;95.00;;;18.07;83.85;101488.22;4382762;39;97547;-74
2021/08/10 01:55:37;;;;;;;9.48;0.82;;;15.30;95.10;;;18.05;84.00;101495.91;4383864;39;96706;-74
2021/08/10 01:58:55;;;;;;;0.00;0.00;;;15.30;95.10;;;18.06;84.24;101484.75;4392557;39;96742;-74
2021/08/10 02:02:03;;;;;;;0.40;0.40;;;15.30;95.10;;;18.07;84.16;101496.38;4381957;39;96713;-74
2021/08/10 02:05:10;;;;;;;0.20;0.20;;;15.30;95.10;;;18.04;83.96;101497.84;4386102;39;96935;-74
2021/08/10 02:08:15;;;;;;;0.00;0.00;;;15.30;95.10;;;18.02;83.77;101489.25;4385144;39;97527;-74
2021/08/10 02:11:23;;;;;;;0.63;0.35;;;15.30;95.10;;;17.95;84.44;101486.25;4384023;39;96871;-74
2021/08/10 02:14:32;;;;;;;2.70;1.13;;;15.20;95.00;;;17.94;84.12;101495.50;4385007;39;97659;-74
2021/08/10 02:17:44;;;;;;;0.20;0.20;;;15.30;95.00;;;17.92;84.45;101489.63;4386284;39;97188;-74
2021/08/10 02:21:04;;;;;;;5.38;0.52;;;15.30;95.00;;;17.87;84.24;101487.13;4400000;39;98260;-74
2021/08/10 02:24:21;;;;;;;3.72;0.90;;;15.20;95.00;;;17.88;84.06;101488.72;4382507;39;96852;-74
2021/08/10 02:27:39;;;;;;;0.73;0.57;;;15.20;95.00;;;17.85;83.78;101492.09;4392284;39;97552;-74
2021/08/10 02:30:53;;;;;;;0.38;0.38;;;15.20;95.00;;;17.82;84.03;101502.78;4399412;39;96819;-74
2021/08/10 02:34:07;;;;;;;1.10;1.00;;;15.10;94.90;;;17.79;84.08;101514.28;4392237;39;99152;-74
2021/08/10 02:37:15;;;;;;;0.10;0.10;;;15.10;94.90;;;17.80;84.38;101507.75;4381876;39;98623;-74
2021/08/10 02:40:28;;;;;;;0.85;0.85;;;15.10;95.00;;;17.80;84.63;101486.88;4392781;39;96516;-74
2021/08/10 02:43:35;;;;;;;0.13;0.13;;;15.10;95.00;;;17.80;84.65;101486.88;4391131;39;97582;-74
2021/08/10 02:46:43;;;;;;;14.55;0.93;;;15.10;95.10;;;17.80;83.89;101499.63;4389596;39;97723;-74
2021/08/10 02:49:47;;;;;;;0.43;0.43;;;15.10;95.00;;;17.84;83.74;101503.25;4385139;39;97729;-74
2021/08/10 02:52:53;;;;;;;0.17;0.17;;;15.10;95.00;;;17.85;83.71;101508.34;4391210;39;97599;-74
2021/08/10 02:56:11;;;;;;;1.10;0.47;;;15.10;95.10;;;17.82;84.24;101494.66;4393264;39;96819;-74
2021/08/10 02:59:24;;;;;;;0.22;0.22;;;15.10;95.10;;;17.85;84.70;101494.81;4391893;39;97750;-74
2021/08/10 03:02:37;;;;;;;0.32;0.30;;;15.10;95.10;;;17.89;83.91;101478.69;4392983;39;97879;-74
2021/08/10 03:05:44;;;;;;;0.20;0.20;;;15.10;95.10;;;17.94;83.79;101478.47;4390090;39;96593;-74
2021/08/10 03:08:59;;;;;;;1.00;0.85;;;15.10;95.10;;;17.92;83.84;101476.06;4392585;39;96740;-74
2021/08/10 03:12:09;;;;;;;1.17;1.02;;;15.10;95.10;;;17.93;84.02;101479.59;4378833;39;97554;-74
2021/08/10 03:15:15;;;;;;;0.28;0.28;;;15.10;95.10;;;17.97;83.11;101485.94;4390251;39;96838;-74
2021/08/10 03:18:27;;;;;;;0.20;0.20;;;15.10;95.00;;;17.98;83.53;101490.22;4397608;39;97651;-74
2021/08/10 03:21:34;;;;;;;0.20;0.20;;;15.10;95.10;;;18.01;83.66;101489.56;4394851;39;97573;-74
2021/08/10 03:24:44;;;;;;;0.22;0.22;;;15.10;95.10;;;18.02;83.67;101488.44;4395977;39;97320;-74
2021/08/10 03:27:52;;;;;;;0.95;0.95;;;15.10;95.10;;;18.01;83.76;101481.44;4395700;39;97593;-74
2021/08/10 03:30:58;;;;;;;0.65;0.47;;;15.10;95.00;;;17.99;83.67;101484.47;4393886;39;96696;-74
2021/08/10 03:34:03;;;;;;;0.73;0.73;;;15.10;95.10;;;17.92;84.03;101481.50;4385695;39;97482;-74
2021/08/10 03:37:09;;;;;;;0.63;0.32;;;15.20;95.10;;;17.90;83.84;101481.03;4385670;39;97625;-74
2021/08/10 03:40:15;;;;;;;0.63;0.60;;;15.20;95.10;;;17.85;84.08;101478.53;4394330;39;97548;-74
2021/08/10 03:43:21;;;;;;;0.10;0.10;;;15.20;95.10;;;17.78;84.16;101478.28;4385151;39;96674;-74
2021/08/10 03:46:30;;;;;;;0.00;0.00;;;15.10;95.00;;;17.86;83.82;101474.69;4392997;39;98864;-74
2021/08/10 03:49:38;;;;;;;0.20;0.20;;;15.10;95.00;;;17.74;83.82;101474.66;4376670;39;97630;-74
2021/08/10 03:52:42;;;;;;;1.33;0.80;;;15.10;95.00;;;17.71;84.24;101474.50;4393217;39;96759;-74
2021/08/10 03:55:51;;;;;;;3.83;1.58;;;15.10;95.00;;;17.66;83.90;101470.06;4385536;39;97560;-74
2021/08/10 03:59:09;;;;;;;0.65;0.65;;;15.00;94.90;;;17.59;84.71;101474.44;4379204;39;96872;-74
2021/08/10 04:02:17;;;;;;;0.20;0.20;;;15.00;94.90;;;17.66;84.76;101480.13;4376947;39;97820;-74
2021/08/10 04:05:23;;;;;;;0.03;0.03;;;15.00;95.00;;;17.68;84.71;101489.50;4392764;39;96714;-74
2021/08/10 04:08:32;;;;;;;1.75;0.68;;;15.00;95.00;;;17.73;84.36;101486.63;4392298;39;98032;-74
2021/08/10 04:11:39;;;;;;;0.68;0.63;;;15.00;95.10;;;17.72;84.81;101486.94;4373296;39;96778;-75
2021/08/10 04:14:49;;;;;;;0.15;0.15;;;15.00;95.10;;;17.75;84.12;101489.78;4385948;39;97523;-74
2021/08/10 04:17:55;;;;;;;0.00;0.00;;;15.10;95.10;;;17.75;84.35;101488.97;4402987;39;97189;-74
2021/08/10 04:21:00;;;;;;;0.20;0.20;;;15.00;95.00;;;17.76;84.20;101490.56;4392179;39;97627;-76
2021/08/10 04:24:06;;;;;;;0.00;0.00;;;15.00;95.00;;;17.74;83.96;101492.81;4385257;39;96786;-74
2021/08/10 04:27:13;;;;;;;0.68;0.65;;;15.10;95.00;;;17.81;83.88;101496.59;4376456;39;97060;-74
2021/08/10 04:30:17;;;;;;;0.10;0.10;;;15.00;94.90;;;17.65;84.07;101494.81;4393489;39;97886;-74
2021/08/10 04:33:21;;;;;;;0.43;0.43;;;15.00;94.90;;;17.59;84.72;101502.31;4391916;39;97573;-74
2021/08/10 04:36:25;;;;;;;;;;;15.00;94.90;;;17.61;84.56;101500.06;4394853;39;96879;-74
2021/08/10 04:39:29;;;;;;;0.47;0.47;;;15.00;95.00;;;17.65;84.75;101494.81;4385439;39;96687;-74
2021/08/10 04:42:36;;;;;;;0.45;0.45;;;15.10;95.00;;;17.69;84.71;101493.78;4393431;39;98228;-75
2021/08/10 04:45:41;;;;;;;0.30;0.30;;;15.10;95.00;;;17.74;84.89;101498.25;4393201;39;97623;-74
2021/08/10 04:48:45;;;;;;;;;;;15.20;95.00;;;17.84;84.71;101504.06;4384819;39;97649;-74
2021/08/10 04:51:50;;;;;;;2.17;0.63;;;15.20;94.90;;;17.94;84.08;101503.66;4392379;39;96820;-74
2021/08/10 04:54:56;;;;;;;0.00;0.00;;;15.30;94.90;;;18.00;83.35;101501.53;4382761;39;97629;-74
2021/08/10 04:58:03;;;;;;;0.38;0.38;;;15.30;94.80;;;18.03;83.69;101501.69;4383645;39;96744;-74
2021/08/10 05:01:07;;;;;;;2.03;1.08;;;15.30;94.80;;;17.98;83.78;101503.78;4368451;39;96712;-74
2021/08/10 05:04:15;;;;;;;0.32;0.32;;;15.30;94.70;;;18.01;83.88;101503.13;4379793;39;97612;-74
2021/08/10 05:07:19;;;;;;;0.88;0.47;;;15.40;94.70;;;17.93;83.65;101510.19;4384104;39;96613;-74
2021/08/10 05:10:25;;;;;;;0.13;0.13;;;15.30;94.60;;;17.90;83.68;101504.66;4383018;39;96827;-74
2021/08/10 05:13:31;;;;;;;0.40;0.40;;;15.30;94.60;;;17.97;83.43;101505.69;4391050;39;96799;-74
2021/08/10 05:16:35;;;;;;;0.43;0.43;;;15.40;94.60;;;18.07;83.75;101510.72;4385072;39;97346;-74
2021/08/10 05:19:39;;;;;;;0.17;0.17;;;15.40;94.60;;;18.18;83.60;101505.69;4385581;39;98419;-74
2021/08/10 05:22:45;;;;;;;3.63;0.43;;;15.50;94.60;;;18.39;83.42;101504.56;4377402;39;97630;-74
2021/08/10 05:25:50;;;;;;;4.35;0.95;;;15.60;94.50;;;19.02;81.84;101517.56;4384533;39;97826;-74
2021/08/10 05:28:55;;;;;;;0.75;0.55;;;15.80;94.50;;;19.49;81.17;101513.25;4398382;39;96946;-75
2021/08/10 05:31:59;;;;;;;0.20;0.20;;;16.10;94.20;;;20.05;79.35;101512.25;4387085;39;98545;-75
2021/08/10 05:35:09;;;;;;;0.38;0.30;;;16.50;93.80;;;20.41;78.53;101514.81;4374678;39;97622;-75
2021/08/10 05:38:15;;;;;;;0.63;0.63;;;16.90;93.40;;;20.56;78.60;101514.84;4385530;39;97702;-76
2021/08/10 05:41:22;;;;;;;0.55;0.30;;;17.10;93.20;;;20.71;78.57;101514.06;4392859;39;97547;-75
2021/08/10 05:44:27;;;;;;;0.52;0.38;;;17.30;93.10;;;20.68;78.99;101512.81;4376549;39;97753;-75
2021/08/10 05:47:33;;;;;;;0.10;0.10;;;17.40;93.00;;;20.75;78.85;101513.03;4392898;39;96846;-75
2021/08/10 05:50:39;;;;;;;0.32;0.32;;;17.50;93.00;;;20.71;79.42;101512.13;4391994;39;97736;-75
2021/08/10 05:53:43;;;;;;;0.00;0.00;;;17.60;93.00;;;21.79;77.32;101507.75;4383703;39;96823;-75
2021/08/10 05:56:49;;;;;;;0.10;0.10;;;18.20;93.20;;;26.07;64.30;101511.75;4382627;39;96618;-75
2021/08/10 05:59:57;;;;;;;0.85;0.52;;;20.20;90.90;;;26.83;63.09;101527.66;4400754;39;96756;-76
2021/08/10 06:03:11;;;;;;;4.97;0.88;;;21.20;88.10;;;26.10;66.17;101531.03;4384681;39;97483;-76
2021/08/10 06:06:16;;;;;;;0.50;0.50;;;21.60;86.00;;;25.47;68.21;101534.59;4391825;39;96891;-76
2021/08/10 06:09:23;;;;;;;0.63;0.60;;;21.70;86.30;;;25.28;69.97;101538.38;4390468;39;97471;-75
2021/08/10 06:12:27;;;;;;;0.10;0.10;;;21.60;86.90;;;24.44;72.56;101539.47;4383341;39;97143;-76
2021/08/10 06:15:32;;;;;;;0.10;0.10;;;21.30;88.40;;;24.90;72.02;101555.25;4361523;39;97551;-76
2021/08/10 06:18:41;;;;;;;0.45;0.43;;;21.20;89.40;;;23.92;74.11;101545.13;4382982;39;97664;-76
2021/08/10 06:21:53;;;;;;;0.30;0.30;;;20.90;89.60;;;23.39;75.58;101551.75;4400931;39;96687;-75
2021/08/10 06:24:58;;;;;;;0.00;0.00;;;20.60;90.30;;;23.13;76.08;101548.22;4371673;39;97197;-76
2021/08/10 06:28:03;;;;;;;0.10;0.10;;;20.30;90.80;;;23.32;75.80;101535.25;4386659;39;97612;-75
2021/08/10 06:31:12;;;;;;;0.38;0.38;;;20.20;91.00;;;22.95;76.29;101536.94;4390715;39;97074;-75
2021/08/10 06:34:16;;;;;;;1.55;0.95;;;19.90;91.20;;;22.71;77.03;101550.97;4385143;39;97670;-75
2021/08/10 06:37:20;;;;;;;0.57;0.47;;;19.80;91.30;;;22.66;77.09;101543.06;4393389;39;97761;-76
2021/08/10 06:40:28;;;;;;;0.10;0.10;;;19.70;91.60;;;22.26;78.20;101536.41;4386033;39;97846;-76
2021/08/10 06:43:33;;;;;;;0.30;0.30;;;19.50;91.80;;;21.95;78.68;101538.47;4377264;39;97574;-76
2021/08/10 06:46:57;;;;;;;10.80;1.10;;;19.30;92.00;;;21.89;79.23;101548.88;4393332;39;97701;-75
2021/08/10 06:50:07;;;;;;;0.45;0.28;;;19.10;92.40;;;22.16;78.26;101541.66;4382695;39;98204;-76
2021/08/10 06:53:10;;;;;;;1.50;0.60;;;19.10;92.60;;;22.44;77.48;101538.38;4375033;39;98692;-75
2021/08/10 06:56:23;;;;;;;1.65;0.50;;;19.10;92.60;;;22.43;77.25;101542.25;4385606;39;97605;-76
2021/08/10 06:59:31;;;;;;;1.23;0.73;;;19.20;92.60;;;22.12;77.99;101538.84;4395011;39;97365;-76
2021/08/10 07:02:39;;;;;;;0.28;0.20;;;19.10;92.60;;;22.39;77.66;101541.41;4387748;39;98079;-76
2021/08/10 07:05:43;;;;;;;0.70;0.70;;;19.10;92.60;;;22.67;76.78;101552.84;4377882;39;97765;-76
2021/08/10 07:08:52;;;;;;;5.95;1.67;;;19.20;92.50;;;22.62;77.31;101555.09;4385978;39;97456;-76
2021/08/10 07:11:56;;;;;;;0.63;0.63;;;19.30;92.30;;;22.36;77.75;101550.25;4377578;39;97722;-76
2021/08/10 07:15:00;;;;;;;0.90;0.90;;;19.30;92.40;;;23.05;76.00;101560.13;4383945;39;97714;-76
2021/08/10 07:18:09;;;;;;;0.20;0.20;;;19.40;92.40;;;24.87;71.57;101558.75;4392648;39;97660;-76
2021/08/10 07:21:16;;;;;;;0.65;0.55;;;20.00;92.20;;;26.30;66.29;101559.75;4384769;39;96679;-75
2021/08/10 07:24:30;;;;;;;0.70;0.70;;;21.30;89.40;;;27.29;64.12;101558.78;4386046;39;97557;-76
2021/08/10 07:27:34;;;;;;;0.55;0.40;;;22.10;86.40;;;27.64;63.90;101561.47;4394578;39;98129;-76
2021/08/10 07:30:38;;;;;;;2.00;1.00;;;22.70;85.50;;;27.79;64.96;101560.28;4383985;39;97696;-76
2021/08/10 07:33:43;;;;;;;0.32;0.32;;;22.70;86.30;;;26.51;68.52;101561.81;4376705;39;97576;-76
2021/08/10 07:36:47;;;;;;;0.52;0.52;;;22.60;86.40;;;28.19;63.84;101570.78;4377962;39;97570;-76
2021/08/10 07:39:53;;;;;;;2.67;0.80;;;23.30;86.00;;;29.98;60.43;101565.44;4385579;39;97669;-76
2021/08/10 07:42:59;;;;;;;1.00;0.60;;;23.70;85.60;;;34.31;49.18;101562.88;4392617;39;96706;-77
2021/08/10 07:46:12;;;;;;;0.60;0.60;;;25.40;81.20;;;34.96;48.92;101559.22;4393968;39;96655;-77
2021/08/10 07:49:20;;;;;;;1.25;1.15;;;26.60;79.40;;;33.34;53.92;101558.06;4390517;39;97829;-77
2021/08/10 07:52:24;;;;;;;0.63;0.35;;;27.20;78.10;;;33.65;54.42;101559.19;4383540;39;99509;-76
2021/08/10 07:55:27;;;;;;;;;;;27.00;79.70;;;38.84;42.96;101569.25;4377438;39;98054;-77
2021/08/10 07:58:32;;;;;;;0.55;0.52;;;28.20;77.80;;;41.22;39.22;101550.59;4378074;39;97319;-78
2021/08/10 08:01:37;;;;;;;1.90;0.77;;;30.00;74.60;;;42.50;38.28;101552.97;4402478;39;98305;-78
2021/08/10 08:04:43;;;;;;;14.38;0.82;;;31.20;72.50;;;43.34;37.12;101536.03;4393270;39;97547;-78
2021/08/10 08:07:47;;;;;;;0.57;0.47;;;32.10;71.20;;;43.07;39.11;101540.25;4378308;39;97616;-78
2021/08/10 08:10:51;;;;;;;0.47;0.28;;;32.80;70.90;;;42.70;40.30;101535.94;4394075;39;97547;-78
2021/08/10 08:14:06;;;;;;;0.75;0.73;;;33.10;71.90;;;40.31;45.89;101536.22;4392075;39;97898;-78
2021/08/10 08:17:10;;;;;;;1.50;0.82;;;33.40;71.90;;;35.98;55.80;101534.91;4393424;39;97557;-77
2021/08/10 08:20:18;;;;;;;0.52;0.52;;;32.50;73.30;;;35.93;55.28;101534.72;4374283;39;97638;-77
2021/08/10 08:23:25;;;;;;;0.20;0.20;;;31.20;74.90;;;38.44;48.94;101529.56;4393477;39;97609;-77
2021/08/10 08:26:39;;;;;;;1.08;0.55;;;30.90;77.30;;;37.97;49.81;101528.59;4393462;39;97745;-77
2021/08/10 08:29:44;;;;;;;0.15;0.15;;;30.90;77.10;;;39.57;46.00;101531.00;4384825;39;97480;-77
2021/08/10 08:32:48;;;;;;;0.68;0.63;;;31.00;76.80;;;38.64;48.12;101526.19;4386237;39;97173;-77
2021/08/10 08:35:54;;;;;;;0.60;0.17;;;31.30;76.50;;;42.50;40.41;101519.16;4387461;39;96932;-78
2021/08/10 08:38:57;;;;;;;5.40;0.73;;;31.70;75.80;;;38.74;48.80;101525.72;4392259;39;97670;-78
2021/08/10 08:42:06;;;;;;;2.42;1.33;;;31.90;75.40;;;36.38;54.62;101532.97;4392839;39;97675;-77
2021/08/10 08:45:12;;;;;;;1.80;1.50;;;31.50;75.70;;;33.90;60.13;101521.16;4396015;39;97638;-77
2021/08/10 08:48:18;;;;;;;1.70;0.65;;;30.60;76.90;;;33.00;61.97;101521.56;4386186;39;97826;-77
2021/08/10 08:51:29;;;;;;;0.20;0.20;;;29.80;78.40;;;36.13;53.92;101526.81;4390145;39;98338;-77
2021/08/10 08:54:35;;;;;;;1.27;0.70;;;29.60;80.40;;;33.12;62.81;101529.97;4391672;39;97270;-77
2021/08/10 08:57:40;;;;;;;2.55;1.55;;;29.40;80.90;;;32.40;63.28;101522.19;4374411;39;96709;-77
2021/08/10 09:00:44;;;;;;;0.82;0.60;;;29.00;79.70;;;31.34;65.33;101530.28;4389210;39;96971;-77
2021/08/10 09:03:49;;;;;;;0.88;0.50;;;28.50;80.00;;;30.72;66.66;101515.50;4366076;39;98692;-77
2021/08/10 09:06:56;;;;;;;6.43;0.70;;;27.90;80.90;;;33.27;59.75;101519.31;4373170;39;96892;-77
2021/08/10 09:10:11;;;;;;;1.65;0.77;;;27.80;82.50;;;34.96;55.16;101528.56;4384939;39;97685;-77
2021/08/10 09:13:15;;;;;;;0.95;0.75;;;28.20;82.10;;;33.35;59.97;101521.47;4377366;39;97865;-77
2021/08/10 09:16:20;;;;;;;2.17;0.93;;;28.40;81.50;;;33.52;59.67;101534.13;4368813;39;97642;-77
2021/08/10 09:19:41;;;;;;;2.28;0.82;;;28.30;81.90;;;31.90;63.33;101537.53;4392062;39;96702;-77
2021/08/10 09:22:47;;;;;;;1.17;0.85;;;28.10;81.00;;;31.37;63.98;101527.44;4393947;39;96586;-77
2021/08/10 09:26:15;;;;;;;0.30;0.30;;;27.80;81.10;;;31.69;63.25;101532.44;4389765;39;97154;-77
2021/08/10 09:29:19;;;;;;;1.35;0.93;;;27.40;82.20;;;31.11;64.51;101522.00;4383544;39;97696;-77
2021/08/10 09:32:24;;;;;;;0.52;0.52;;;27.20;82.60;;;29.77;67.73;101521.50;4393846;39;97065;-74
2021/08/10 09:35:33;;;;;;;3.08;1.00;;;26.90;82.70;;;29.86;67.71;101513.50;4390604;39;98595;-75
2021/08/10 09:38:48;;;;;;;2.13;1.33;;;26.60;83.90;;;30.27;66.82;101519.69;4401544;39;98438;-75
2021/08/10 09:42:04;;;;;;;6.38;0.45;;;26.60;84.00;;;31.08;63.83;101520.06;4373959;39;98621;-74
2021/08/10 09:45:12;;;;;;;1.25;0.68;;;26.50;83.40;;;33.69;56.68;101518.19;4386866;39;97312;-74
2021/08/10 09:48:18;;;;;;;0.50;0.50;;;26.70;83.60;;;33.34;57.06;101510.81;4389296;39;96736;-74
2021/08/10 09:51:25;;;;;;;1.55;0.75;;;27.00;82.50;;;31.80;62.44;101513.59;4392576;39;97915;-75
2021/08/10 09:54:30;;;;;;;1.08;1.02;;;27.10;82.50;;;33.22;58.52;101509.53;4393054;39;97001;-75
2021/08/10 09:57:34;;;;;;;1.38;0.93;;;27.20;83.00;;;33.00;59.79;101514.03;4391100;39;97559;-74
2021/08/10 10:00:40;;;;;;;1.92;0.98;;;27.40;83.10;;;32.74;60.69;101500.44;4394355;39;96813;-74
2021/08/10 10:03:45;;;;;;;0.63;0.45;;;27.70;82.70;;;33.36;59.35;101500.81;4389812;39;96753;-74
2021/08/10 10:06:58;;;;;;;0.93;0.68;;;27.90;82.60;;;33.86;59.17;101501.00;4401594;39;96758;-74
2021/08/10 10:10:06;;;;;;;3.33;0.93;;;28.30;82.20;;;33.60;60.57;101501.31;4391253;39;97662;-74
2021/08/10 10:13:21;;;;;;;1.80;0.70;;;28.60;82.00;;;33.64;61.36;101496.47;4388357;39;97320;-75
2021/08/10 10:16:25;;;;;;;0.63;0.57;;;28.80;82.00;;;33.47;62.61;101494.94;4390293;39;97876;-73
2021/08/10 10:19:30;;;;;;;1.13;0.60;;;29.00;82.10;;;32.83;64.53;101492.25;4392218;39;97125;-75
2021/08/10 10:22:35;;;;;;;0.73;0.50;;;28.90;82.40;;;33.15;64.15;101498.53;4394732;39;97656;-74
2021/08/10 10:25:40;;;;;;;0.35;0.35;;;29.10;82.70;;;32.95;65.36;101497.09;4381307;39;97879;-75
2021/08/10 10:28:46;;;;;;;0.95;0.52;;;29.00;83.30;;;32.20;67.16;101496.50;4391215;39;96871;-75
2021/08/10 10:31:50;;;;;;;1.55;0.90;;;28.90;83.30;;;31.13;69.31;101495.44;4395254;39;100300;-75
2021/08/10 10:34:54;;;;;;;0.30;0.25;;;28.50;83.50;;;30.11;71.31;101502.94;4394981;39;96603;-75
2021/08/10 10:38:00;;;;;;;0.57;0.43;;;27.90;83.50;;;29.09;72.96;101500.47;4396157;39;97236;-75
2021/08/10 10:41:07;;;;;;;0.50;0.50;;;27.20;83.80;;;28.51;73.64;101499.72;4394178;39;96681;-76
2021/08/10 10:44:11;;;;;;;1.08;0.45;;;26.50;84.50;;;28.51;72.91;101497.75;4402373;39;96847;-75
2021/08/10 10:47:41;;;;;;;1.08;0.70;;;26.10;85.20;;;28.60;72.29;101495.34;4395309;39;97331;-75
2021/08/10 10:51:03;;;;;;;1.77;0.40;;;25.90;86.20;;;28.33;72.88;101490.78;4393332;39;97134;-75
2021/08/10 10:54:25;;;;;;;1.23;0.73;;;25.60;86.10;;;27.89;73.57;101488.59;4395077;39;100442;-75
2021/08/10 10:57:37;;;;;;;2.15;0.93;;;25.30;86.60;;;27.30;74.56;101495.03;4394315;39;97596;-74
2021/08/10 11:00:41;;;;;;;1.08;0.73;;;25.00;86.90;;;26.73;75.76;101513.94;4394130;39;97677;-74
2021/08/10 11:04:11;;;;;;;0.85;0.30;;;24.50;87.40;;;26.07;76.16;101509.81;4394289;39;96602;-75
2021/08/10 11:07:36;;;;;;;0.60;0.52;;;24.10;87.60;;;25.67;76.95;101510.00;4373307;39;97582;-75
2021/08/10 11:10:44;;;;;;;0.45;0.45;;;23.60;87.90;;;25.68;76.78;101505.28;4395014;39;97531;-75
2021/08/10 11:13:50;;;;;;;0.73;0.73;;;23.30;88.70;;;25.93;75.06;101500.72;4392067;39;96653;-75
2021/08/10 11:17:15;;;;;;;1.45;0.45;;;23.20;89.10;;;26.29;74.69;101502.41;4391411;39;97642;-75
2021/08/10 11:20:25;;;;;;;0.30;0.30;;;23.30;89.60;;;26.35;74.64;101506.34;4392453;39;97526;-75
2021/08/10 11:23:38;;;;;;;0.70;0.52;;;23.40;90.10;;;26.00;75.54;101496.06;4392681;39;96766;-75
2021/08/10 11:26:43;;;;;;;0.00;0.00;;;23.30;90.00;;;25.41;76.59;101501.22;4392389;39;97263;-75
2021/08/10 11:29:48;;;;;;;0.00;0.00;;;23.00;89.90;;;24.98;77.45;101510.28;4393524;39;97476;-75
2021/08/10 11:32:52;;;;;;;1.55;0.60;;;22.70;90.00;;;25.03;77.24;101506.38;4395519;39;96794;-74
2021/08/10 11:36:24;;;;;;;3.53;0.88;;;22.50;90.30;;;24.86;77.04;101502.34;4395128;39;97377;-74
2021/08/10 11:39:29;;;;;;;0.10;0.10;;;22.40;90.20;;;24.78;76.69;101513.63;4389389;39;96999;-74
2021/08/10 11:42:33;;;;;;;0.20;0.20;;;22.20;90.40;;;24.95;76.75;101522.03;4383398;39;96924;-74
2021/08/10 11:45:38;;;;;;;1.25;0.47;;;22.10;90.80;;;25.13;75.90;101511.97;4394435;39;97688;-74
2021/08/10 11:48:48;;;;;;;1.83;1.45;;;22.10;90.90;;;25.82;74.88;101508.88;4392731;39;97245;-74
2021/08/10 11:51:53;;;;;;;1.60;1.33;;;22.40;90.90;;;26.60;72.52;101515.47;4392975;39;97520;-74
2021/08/10 11:54:58;;;;;;;0.20;0.20;;;22.80;90.50;;;26.45;73.04;101519.34;4390719;39;97372;-74
2021/08/10 11:58:06;;;;;;;1.50;0.75;;;23.00;90.10;;;25.80;74.65;101533.22;4392147;39;96752;-74
2021/08/10 12:01:11;;;;;;;0.25;0.25;;;22.90;90.00;;;25.35;76.03;101541.16;4392495;39;97425;-74
2021/08/10 12:04:19;;;;;;;1.38;0.32;;;22.70;90.10;;;24.70;76.71;101540.19;4383201;39;98510;-74
2021/08/10 12:07:23;;;;;;;0.38;0.10;;;22.40;89.90;;;24.13;77.02;101539.91;4392963;39;97026;-75
2021/08/10 12:10:35;;;;;;;1.38;0.75;;;22.00;89.40;;;23.91;77.05;101543.56;4367257;39;98879;-74
2021/08/10 12:13:39;;;;;;;0.30;0.30;;;21.70;89.50;;;23.83;77.27;101544.59;4392317;39;97337;-74
2021/08/10 12:17:01;;;;;;;0.57;0.57;;;21.50;90.10;;;24.21;76.00;101528.66;4375837;39;97540;-74
2021/08/10 12:20:13;;;;;;;0.30;0.30;;;21.40;90.30;;;24.85;75.42;101530.91;4391887;39;97084;-74
2021/08/10 12:23:17;;;;;;;0.43;0.40;;;21.60;90.60;;;25.29;73.71;101539.16;4390135;39;97720;-73
2021/08/10 12:26:22;;;;;;;1.55;0.22;;;21.90;90.40;;;25.46;73.54;101527.50;4373397;39;97813;-74
2021/08/10 12:29:36;;;;;;;1.90;0.28;;;22.10;90.20;;;25.81;73.39;101523.78;4398760;39;98603;-74
2021/08/10 12:32:41;;;;;;;0.30;0.30;;;22.30;90.00;;;26.36;71.60;101527.16;4388658;39;97601;-73
2021/08/10 12:36:07;;;;;;;0.52;0.25;;;22.60;89.50;;;26.70;70.75;101523.75;4391006;39;97307;-73
2021/08/10 12:39:11;;;;;;;0.22;0.20;;;22.90;89.10;;;27.25;70.04;101522.22;4381213;39;96889;-74
2021/08/10 12:42:16;;;;;;;0.45;0.45;;;23.30;89.00;;;28.27;67.77;101526.25;4392888;39;97596;-74
2021/08/10 12:45:21;;;;;;;1.77;1.67;;;23.80;88.40;;;28.07;69.50;101522.41;4386381;39;97205;-74
2021/08/10 12:48:33;;;;;;;0.20;0.20;;;24.20;87.90;;;28.36;69.56;101510.06;4395381;39;98731;-74
2021/08/10 12:51:55;;;;;;;0.57;0.35;;;24.40;88.40;;;28.33;70.22;101510.06;4394268;39;96762;-74
2021/08/10 12:55:00;;;;;;;0.65;0.28;;;24.60;87.90;;;28.17;71.27;101509.75;4385465;39;97642;-74
2021/08/10 12:58:07;;;;;;;1.42;0.40;;;24.70;87.80;;;28.17;71.78;101507.75;4383881;39;97788;-75
2021/08/10 13:01:11;;;;;;;0.30;0.30;;;24.70;88.90;;;27.96;72.37;101515.34;4370551;39;98662;-74
2021/08/10 13:04:16;;;;;;;0.68;0.57;;;24.70;88.90;;;27.77;72.90;101513.84;4395570;39;97690;-74